Time;durP1;ratioP1;P1;durP2;ratioP2;P2;SDS_P1;SDS_P2;PMS_P1;PMS_P2;Temp;Humidity;BMP_temperature;BMP_pressure;BME280_temperature;BME280_humidity;BME280_pressure;Samples;Min_cycle;Max_cycle;Signal;HPM_P1;HPM_P2
2022/02/09 00:04:56;;;;;;;18.90;16.13;;;9.00;99.90;;;;;;5080209;28;20561;-59
2022/02/09 00:07:31;;;;;;;25.35;16.55;;;9.00;99.90;;;;;;5096734;28;20273;-59
2022/02/09 00:09:58;;;;;;;19.13;14.27;;;8.90;99.90;;;;;;5109453;28;20632;-60
2022/02/09 00:12:32;;;;;;;15.00;13.07;;;8.90;99.90;;;;;;5094387;28;20216;-60
2022/02/09 00:15:13;;;;;;;18.95;14.75;;;8.90;99.90;;;;;;5093838;28;20625;-59
2022/02/09 00:17:47;;;;;;;17.20;14.82;;;8.80;99.90;;;;;;5093531;28;20556;-60
2022/02/09 00:31:42;;;;;;;16.40;13.77;;;9.00;99.90;;;;;;5086938;28;20253;-60
2022/02/09 00:34:26;;;;;;;16.23;13.20;;;9.00;99.90;;;;;;5096996;28;20695;-59
2022/02/09 00:42:37;;;;;;;15.00;12.60;;;9.10;99.90;;;;;;5107439;28;20634;-60
2022/02/09 00:59:12;;;;;;;12.02;10.70;;;9.20;99.90;;;;;;5097362;28;20264;-60
2022/02/09 01:41:08;;;;;;;12.17;9.73;;;9.40;99.90;;;;;;5096138;28;20187;-59
2022/02/09 01:57:10;;;;;;;14.50;10.88;;;9.50;99.90;;;;;;5096055;28;20321;-61
2022/02/09 01:59:38;;;;;;;14.35;11.55;;;9.40;99.90;;;;;;5096806;28;20691;-60
2022/02/09 02:02:06;;;;;;;15.65;11.65;;;9.50;99.90;;;;;;5097203;28;20204;-59
2022/02/09 02:04:33;;;;;;;14.88;11.82;;;9.40;99.90;;;;;;5096539;28;20650;-60
2022/02/09 02:07:07;;;;;;;19.20;11.68;;;9.40;99.90;;;;;;5095603;28;20220;-60
2022/02/09 02:09:36;;;;;;;15.23;12.32;;;9.40;99.90;;;;;;5095331;28;20219;-61
2022/02/09 02:12:11;;;;;;;14.50;11.77;;;9.50;99.90;;;;;;5096538;28;20295;-59
2022/02/09 02:14:42;;;;;;;15.70;12.60;;;9.40;99.90;;;;;;5097247;28;20558;-59
2022/02/09 02:17:16;;;;;;;16.60;11.75;;;9.50;99.90;;;;;;5096099;28;20230;-59
2022/02/09 02:19:46;;;;;;;18.10;11.70;;;9.40;99.90;;;;;;5095556;28;20189;-60
2022/02/09 02:22:34;;;;;;;16.17;11.57;;;9.40;99.90;;;;;;5095546;28;20242;-59
2022/02/09 02:25:37;;;;;;;13.10;11.77;;;9.40;99.90;;;;;;5102626;28;20248;-60
2022/02/09 02:36:38;;;;;;;12.27;10.05;;;9.40;99.90;;;;;;5063816;28;20215;-59
2022/02/09 02:59:15;;;;;;;11.00;8.45;;;9.40;99.90;;;;;;5094846;28;20191;-60
2022/02/09 03:12:37;;;;;;;8.73;7.82;;;9.40;99.90;;;;;;5091377;28;20555;-60
2022/02/09 03:15:24;;;;;;;8.40;7.43;;;9.40;99.90;;;;;;5094536;28;20552;-60
2022/02/09 03:18:04;;;;;;;9.00;7.57;;;9.40;99.90;;;;;;5094520;28;20219;-60
2022/02/09 03:20:38;;;;;;;9.63;7.45;;;9.40;99.90;;;;;;5094586;28;20281;-59
2022/02/09 03:23:17;;;;;;;8.73;7.55;;;9.40;99.90;;;;;;5094537;28;20201;-59
2022/02/09 03:26:07;;;;;;;10.52;7.63;;;9.40;99.90;;;;;;5094528;28;20216;-60
2022/02/09 03:42:16;;;;;;;8.75;7.05;;;9.50;99.90;;;;;;5094013;28;20200;-60
2022/02/09 03:42:51;;;;;;;6.80;5.70;;;9.50;99.90;;;;;;5053261;28;20196;-59
2022/02/09 03:48:25;;;;;;;6.80;5.93;;;9.40;99.90;;;;;;5093729;28;20793;-58
2022/02/09 03:53:50;;;;;;;6.90;5.80;;;9.40;99.90;;;;;;5090561;28;20273;-60
2022/02/09 03:56:30;;;;;;;7.03;6.33;;;9.40;99.90;;;;;;5093809;28;20220;-58
2022/02/09 03:58:57;;;;;;;6.70;6.10;;;9.40;99.90;;;;;;5093205;28;20525;-60
2022/02/09 04:01:30;;;;;;;7.50;6.70;;;9.40;99.90;;;;;;5093625;28;20204;-60
2022/02/09 04:03:57;;;;;;;9.07;6.28;;;9.40;99.90;;;;;;5093801;28;20429;-58
2022/02/09 04:09:20;;;;;;;5.97;5.38;;;9.40;99.90;;;;;;5092414;27;20534;-59
2022/02/09 04:11:54;;;;;;;6.20;5.60;;;9.40;99.90;;;;;;5090958;28;20246;-60
2022/02/09 04:14:29;;;;;;;6.60;6.00;;;9.30;99.90;;;;;;5091420;28;20223;-59
2022/02/09 04:17:08;;;;;;;7.85;6.35;;;9.40;99.90;;;;;;5096836;28;20270;-59
2022/02/09 04:19:43;;;;;;;6.35;5.68;;;9.40;99.90;;;;;;5097894;28;20275;-58
2022/02/09 04:22:48;;;;;;;5.80;5.18;;;9.40;99.90;;;;;;5087931;22;20302;-60
2022/02/09 04:36:24;;;;;;;5.70;5.20;;;9.30;99.90;;;;;;5050298;28;20190;-59
2022/02/09 04:38:57;;;;;;;6.28;5.10;;;9.30;99.90;;;;;;5050165;28;20296;-59
2022/02/09 04:44:35;;;;;;;7.55;5.18;;;9.30;99.90;;;;;;5037485;28;20198;-59
2022/02/09 04:55:52;;;;;;;6.40;5.80;;;9.30;99.90;;;;;;5028010;28;20694;-59
2022/02/09 04:58:32;;;;;;;6.90;5.68;;;9.30;99.90;;;;;;5028162;28;20187;-59
2022/02/09 05:01:04;;;;;;;7.63;5.32;;;9.30;99.90;;;;;;5041298;28;20228;-59
2022/02/09 05:04:09;;;;;;;6.88;5.40;;;9.30;99.90;;;;;;5049408;28;20197;-59
2022/02/09 05:26:05;;;;;;;5.72;4.68;;;9.30;99.90;;;;;;5037628;28;20649;-59
2022/02/09 05:28:32;;;;;;;6.95;5.60;;;9.30;99.90;;;;;;5037302;28;20216;-59
2022/02/09 05:31:03;;;;;;;6.45;5.13;;;9.30;99.90;;;;;;5037712;28;20226;-60
2022/02/09 05:33:30;;;;;;;5.25;4.80;;;9.30;99.90;;;;;;5038218;28;20193;-59
2022/02/09 05:35:57;;;;;;;5.80;5.17;;;9.30;99.90;;;;;;5039616;28;20213;-59
2022/02/09 05:38:24;;;;;;;5.90;5.30;;;9.30;99.90;;;;;;5039270;28;20445;-59
2022/02/09 05:40:51;;;;;;;5.82;5.32;;;9.30;99.90;;;;;;5039376;28;20227;-59
2022/02/09 05:43:21;;;;;;;7.70;5.38;;;9.30;99.90;;;;;;5039859;28;20206;-59
2022/02/09 05:46:22;;;;;;;5.90;5.15;;;9.30;99.90;;;;;;5038678;28;20205;-59
2022/02/09 05:51:40;;;;;;;8.00;5.75;;;9.40;99.90;;;;;;5035649;28;20277;-59
2022/02/09 05:54:23;;;;;;;6.93;5.70;;;9.30;99.90;;;;;;5035282;28;20191;-59
2022/02/09 05:57:11;;;;;;;6.47;5.80;;;9.30;99.90;;;;;;5035562;28;20612;-59
2022/02/09 05:59:37;;;;;;;9.20;6.47;;;9.30;99.90;;;;;;5035188;28;20214;-58
2022/02/09 06:02:05;;;;;;;7.07;6.30;;;9.30;99.90;;;;;;5035573;28;20222;-58
2022/02/09 06:04:37;;;;;;;8.27;6.65;;;9.30;99.90;;;;;;5035563;28;20568;-58
2022/02/09 06:07:05;;;;;;;6.60;6.00;;;9.20;99.90;;;;;;5035356;28;20222;-61
2022/02/09 06:09:32;;;;;;;8.10;6.50;;;9.20;99.90;;;;;;5035535;28;20226;-61
2022/02/09 06:12:09;;;;;;;7.65;6.90;;;9.20;99.90;;;;;;5035340;28;20223;-61
2022/02/09 06:14:56;;;;;;;7.28;6.38;;;9.10;99.90;;;;;;5036039;28;20191;-61
2022/02/09 06:20:09;;;;;;;7.20;6.50;;;9.10;99.90;;;;;;5035731;28;20673;-62
2022/02/09 06:22:37;;;;;;;6.80;6.20;;;9.10;99.90;;;;;;5035040;28;20234;-62
2022/02/09 06:25:04;;;;;;;6.53;5.93;;;9.10;99.90;;;;;;5035153;28;20229;-62
2022/02/09 06:27:31;;;;;;;13.60;5.90;;;9.10;99.90;;;;;;5034615;28;20203;-62
2022/02/09 06:29:59;;;;;;;6.13;5.53;;;9.10;99.90;;;;;;5034354;28;20203;-62
2022/02/09 06:32:27;;;;;;;8.90;6.22;;;9.10;99.90;;;;;;5033762;28;20232;-62
2022/02/09 06:34:54;;;;;;;5.68;4.95;;;9.10;99.90;;;;;;5034537;28;20208;-63
2022/02/09 06:37:26;;;;;;;5.97;5.43;;;9.10;99.90;;;;;;5034942;28;20203;-61
2022/02/09 06:39:58;;;;;;;6.30;5.35;;;9.10;99.90;;;;;;5034337;28;20194;-62
2022/02/09 06:42:27;;;;;;;6.55;5.95;;;9.10;99.90;;;;;;5034243;28;20223;-61
2022/02/09 06:44:59;;;;;;;6.15;5.55;;;9.10;99.90;;;;;;5034441;28;20199;-63
2022/02/09 06:47:28;;;;;;;5.72;5.22;;;9.10;99.90;;;;;;5034692;28;20193;-62
2022/02/09 06:50:02;;;;;;;6.07;5.57;;;9.10;99.90;;;;;;5033824;28;20238;-63
2022/02/09 06:52:30;;;;;;;5.88;5.25;;;9.10;99.90;;;;;;5034377;28;20364;-64
2022/02/09 06:55:15;;;;;;;6.00;5.10;;;9.10;99.90;;;;;;5034065;28;20217;-65
2022/02/09 06:58:01;;;;;;;8.20;6.10;;;9.20;99.90;;;;;;5033719;28;20187;-64
2022/02/09 07:00:30;;;;;;;7.45;5.50;;;9.20;99.90;;;;;;5033935;28;20277;-64
2022/02/09 07:02:57;;;;;;;4.45;4.05;;;9.10;99.90;;;;;;5033987;28;20226;-64
2022/02/09 07:05:24;;;;;;;4.95;4.40;;;9.20;99.90;;;;;;5033722;28;20202;-63
2022/02/09 07:07:53;;;;;;;5.93;4.50;;;9.20;99.90;;;;;;5033871;28;20245;-64
2022/02/09 07:10:20;;;;;;;4.47;4.07;;;9.20;99.90;;;;;;5033990;28;20630;-64
2022/02/09 07:12:47;;;;;;;4.30;3.90;;;9.20;99.90;;;;;;5033790;28;20202;-63
2022/02/09 07:15:21;;;;;;;3.97;3.50;;;9.20;99.90;;;;;;5033469;28;20210;-63
2022/02/09 07:17:49;;;;;;;4.32;3.92;;;9.20;99.90;;;;;;5033723;28;20500;-62
2022/02/09 07:20:19;;;;;;;5.00;4.20;;;9.20;99.90;;;;;;5033917;28;20289;-62
2022/02/09 07:22:49;;;;;;;5.65;4.03;;;9.20;99.90;;;;;;5034001;28;20258;-62
2022/02/09 07:25:19;;;;;;;4.20;3.80;;;9.20;99.90;;;;;;5033611;28;20766;-62
2022/02/09 07:27:50;;;;;;;5.47;4.90;;;9.20;99.90;;;;;;5033940;28;20213;-61
2022/02/09 07:30:19;;;;;;;6.70;4.50;;;9.20;99.90;;;;;;5033076;28;20223;-63
2022/02/09 07:32:48;;;;;;;5.50;3.88;;;9.20;99.90;;;;;;5033179;28;20285;-63
2022/02/09 07:35:15;;;;;;;6.22;5.10;;;9.30;99.90;;;;;;5034129;28;20226;-63
2022/02/09 07:37:42;;;;;;;6.07;4.45;;;9.30;99.90;;;;;;5033324;28;20717;-63
2022/02/09 07:40:12;;;;;;;5.25;4.72;;;9.30;99.90;;;;;;5032934;28;20205;-62
2022/02/09 07:42:45;;;;;;;5.00;4.50;;;9.30;99.90;;;;;;5032846;28;20202;-62
2022/02/09 07:48:24;;;;;;;5.00;4.40;;;9.30;99.90;;;;;;5013055;28;20353;-63
2022/02/09 07:51:13;;;;;;;5.68;5.05;;;9.30;99.90;;;;;;5032828;28;20706;-63
2022/02/09 07:53:48;;;;;;;5.93;5.30;;;9.30;99.90;;;;;;5033079;28;20193;-63
2022/02/09 07:56:15;;;;;;;5.50;5.00;;;9.30;99.90;;;;;;5032893;28;20194;-63
2022/02/09 07:58:44;;;;;;;5.80;5.30;;;9.40;99.90;;;;;;5032758;28;20209;-64
2022/02/09 08:01:11;;;;;;;6.00;5.50;;;9.40;99.90;;;;;;5032845;28;20793;-64
2022/02/09 08:03:39;;;;;;;10.05;5.00;;;9.40;99.90;;;;;;5033073;28;20202;-64
2022/02/09 08:06:07;;;;;;;7.15;6.53;;;9.40;99.90;;;;;;5033276;28;20203;-63
2022/02/09 08:08:34;;;;;;;5.97;5.30;;;9.40;99.90;;;;;;5032830;28;20223;-64
2022/02/09 08:11:13;;;;;;;6.00;5.40;;;9.50;99.90;;;;;;5032862;28;20591;-64
2022/02/09 08:27:36;;;;;;;5.90;5.40;;;9.60;99.90;;;;;;5023601;28;20677;-64
2022/02/09 08:30:19;;;;;;;5.15;4.65;;;9.60;99.90;;;;;;5032652;28;20460;-64
2022/02/09 08:32:56;;;;;;;5.30;4.65;;;9.70;99.90;;;;;;5032858;28;20977;-63
2022/02/09 08:35:23;;;;;;;7.00;5.38;;;9.60;99.90;;;;;;5032241;28;20437;-63
2022/02/09 08:37:52;;;;;;;5.35;4.85;;;9.50;99.90;;;;;;5033305;28;20304;-63
2022/02/09 08:40:22;;;;;;;7.20;6.50;;;9.20;99.90;;;;;;5032489;28;20209;-63
2022/02/09 08:42:49;;;;;;;6.57;5.97;;;9.00;99.90;;;;;;5032608;28;20203;-64
2022/02/09 08:45:16;;;;;;;6.60;6.00;;;8.90;99.90;;;;;;5032364;28;20203;-62
2022/02/09 08:47:44;;;;;;;8.80;7.90;;;8.70;99.90;;;;;;5031557;28;20441;-63
2022/02/09 08:50:12;;;;;;;11.43;7.85;;;8.70;99.90;;;;;;5032249;28;20218;-62
2022/02/09 08:52:39;;;;;;;8.48;7.57;;;8.60;99.90;;;;;;5032148;28;20583;-62
2022/02/09 08:55:08;;;;;;;9.23;7.80;;;8.60;99.90;;;;;;5033769;28;20441;-62
2022/02/09 08:57:35;;;;;;;8.32;7.53;;;8.60;99.90;;;;;;5036433;28;20206;-62
2022/02/09 09:00:12;;;;;;;7.53;6.70;;;8.60;99.90;;;;;;5036080;28;20281;-62
2022/02/09 09:02:44;;;;;;;6.75;6.15;;;8.70;99.90;;;;;;5036037;28;20197;-63
2022/02/09 09:05:18;;;;;;;7.57;6.97;;;8.70;99.90;;;;;;5036246;28;20593;-63
2022/02/09 09:07:50;;;;;;;7.70;7.00;;;8.70;99.90;;;;;;5036118;28;20198;-63
2022/02/09 09:10:24;;;;;;;9.07;6.30;;;8.70;99.90;;;;;;5036775;28;20213;-62
2022/02/09 10:03:00;;;;;;;5.95;5.45;;;9.00;99.90;;;;;;5029012;28;20276;-62
2022/02/09 10:05:50;;;;;;;7.22;6.53;;;9.00;99.90;;;;;;5035008;28;20631;-63
2022/02/09 10:33:56;;;;;;;7.05;6.45;;;9.20;99.90;;;;;;5025417;28;20198;-57
2022/02/09 10:36:24;;;;;;;7.50;6.90;;;9.30;99.90;;;;;;5037927;28;20554;-56
2022/02/09 10:39:04;;;;;;;7.28;5.93;;;9.40;99.90;;;;;;5035124;28;20237;-56
2022/02/09 10:41:38;;;;;;;6.25;5.75;;;9.40;99.90;;;;;;5037244;28;20724;-57
2022/02/09 10:44:08;;;;;;;6.32;5.75;;;9.50;99.90;;;;;;5040267;28;20202;-55
2022/02/09 10:46:46;;;;;;;5.60;5.20;;;9.50;99.90;;;;;;5041132;28;20182;-57
2022/02/09 10:49:17;;;;;;;5.10;4.60;;;9.60;99.90;;;;;;5038278;28;20206;-58
2022/02/09 10:51:49;;;;;;;4.90;4.60;;;9.70;99.90;;;;;;5034667;28;20445;-57
2022/02/09 10:54:18;;;;;;;4.93;4.43;;;9.70;99.90;;;;;;5033826;28;20449;-56
2022/02/09 10:56:46;;;;;;;6.22;5.60;;;9.70;99.90;;;;;;5034441;28;20202;-58
2022/02/09 10:59:16;;;;;;;5.27;4.87;;;9.70;99.90;;;;;;5034885;28;20202;-56
2022/02/09 11:01:44;;;;;;;5.65;5.07;;;9.60;99.90;;;;;;5034299;28;20478;-57
2022/02/09 11:04:12;;;;;;;5.50;5.03;;;9.50;99.90;;;;;;5034258;28;20210;-59
2022/02/09 11:06:41;;;;;;;5.95;5.45;;;9.40;99.90;;;;;;5034530;28;20198;-57
2022/02/09 11:09:10;;;;;;;5.25;4.65;;;9.40;99.90;;;;;;5034208;28;20292;-57
2022/02/09 11:11:39;;;;;;;4.85;4.45;;;9.40;99.90;;;;;;5033957;28;20633;-57
2022/02/09 11:14:10;;;;;;;5.18;4.68;;;9.40;99.90;;;;;;5035278;28;20545;-58
2022/02/09 11:16:39;;;;;;;5.25;4.47;;;9.40;99.90;;;;;;5038622;28;20195;-61
2022/02/09 11:19:07;;;;;;;4.30;4.00;;;9.40;99.90;;;;;;5035286;28;20227;-61
2022/02/09 11:21:39;;;;;;;4.65;4.35;;;9.50;99.90;;;;;;5034826;28;20317;-62
2022/02/09 11:24:18;;;;;;;4.63;4.33;;;9.50;99.90;;;;;;5034418;28;20558;-61
2022/02/09 11:26:53;;;;;;;5.28;4.88;;;9.60;99.90;;;;;;5035177;28;20542;-60
2022/02/09 11:29:39;;;;;;;4.93;4.53;;;9.80;99.90;;;;;;5034715;28;20573;-61
2022/02/09 11:32:17;;;;;;;6.00;5.23;;;9.90;99.90;;;;;;5034887;28;20226;-60
2022/02/09 11:35:13;;;;;;;5.30;4.80;;;10.00;99.90;;;;;;5034759;28;20844;-60
2022/02/09 11:38:08;;;;;;;4.17;3.80;;;10.20;99.90;;;;;;5034582;28;20499;-61
2022/02/09 11:40:42;;;;;;;4.03;3.23;;;10.30;99.90;;;;;;5034476;28;20817;-61
2022/02/09 11:43:47;;;;;;;3.33;3.13;;;10.30;99.90;;;;;;5035006;28;20491;-60
2022/02/09 11:46:40;;;;;;;3.87;3.57;;;10.40;99.90;;;;;;5033964;28;20437;-60
2022/02/09 11:49:52;;;;;;;3.37;3.07;;;10.40;99.90;;;;;;5034899;28;20535;-61
2022/02/09 11:56:34;;;;;;;2.83;2.63;;;10.60;99.90;;;;;;5011334;28;20488;-61
2022/02/09 11:59:15;;;;;;;3.00;2.80;;;10.70;99.90;;;;;;5032959;28;20439;-61
2022/02/09 12:08:46;;;;;;;3.30;2.40;;;10.70;99.90;;;;;;5032887;28;20468;-61
2022/02/09 12:10:22;;;;;;;2.90;2.40;;;10.80;99.90;;;;;;5032619;28;20534;-61
2022/02/09 12:13:08;;;;;;;2.37;2.17;;;10.80;99.90;;;;;;5032806;28;20465;-62
2022/02/09 12:18:39;;;;;;;2.90;2.07;;;10.70;99.90;;;;;;5027499;28;20424;-61
2022/02/09 12:21:17;;;;;;;2.13;2.03;;;10.60;99.90;;;;;;5032860;28;20461;-61
2022/02/09 12:23:47;;;;;;;3.27;2.53;;;10.50;99.90;;;;;;5032541;28;20798;-61
2022/02/09 12:26:20;;;;;;;4.53;2.50;;;10.50;99.90;;;;;;5032685;28;20464;-60
2022/02/09 12:28:59;;;;;;;3.30;3.00;;;10.50;99.90;;;;;;5032550;28;20825;-61
2022/02/09 12:31:32;;;;;;;3.70;2.80;;;10.40;99.90;;;;;;5036263;28;20598;-60
2022/02/09 12:34:01;;;;;;;3.57;3.27;;;10.40;99.90;;;;;;5036333;28;20550;-61
2022/02/09 12:36:33;;;;;;;2.80;2.60;;;10.50;99.90;;;;;;5036704;28;20495;-61
2022/02/09 12:39:05;;;;;;;3.50;3.20;;;10.50;99.90;;;;;;5037126;28;20450;-61
2022/02/09 12:41:32;;;;;;;3.93;3.53;;;10.50;99.90;;;;;;5036688;28;20603;-61
2022/02/09 12:44:03;;;;;;;3.87;3.57;;;10.40;99.90;;;;;;5035980;28;20441;-62
2022/02/09 12:46:32;;;;;;;7.70;3.90;;;10.30;99.90;;;;;;5036305;28;20429;-61
2022/02/09 12:49:06;;;;;;;3.60;3.30;;;10.20;99.90;;;;;;5037563;28;20460;-61
2022/02/09 12:51:38;;;;;;;4.27;3.97;;;10.20;99.90;;;;;;5036875;28;20472;-60
2022/02/09 12:54:06;;;;;;;3.97;3.60;;;10.30;99.90;;;;;;5036613;28;20468;-61
2022/02/09 12:56:36;;;;;;;3.90;3.23;;;10.40;99.90;;;;;;5037109;28;20459;-60
2022/02/09 12:59:07;;;;;;;3.17;2.97;;;10.50;99.90;;;;;;5037098;28;20507;-61
2022/02/09 13:01:47;;;;;;;3.40;3.10;;;10.60;99.90;;;;;;5036723;28;20475;-60
2022/02/09 13:04:34;;;;;;;2.70;2.50;;;10.60;99.90;;;;;;5037620;28;20433;-61
2022/02/09 13:07:07;;;;;;;2.87;2.60;;;10.70;99.90;;;;;;5037118;28;20483;-61
2022/02/09 13:09:35;;;;;;;2.93;2.63;;;10.70;99.90;;;;;;5037021;28;20494;-61
2022/02/09 13:12:03;;;;;;;2.60;2.40;;;10.70;99.90;;;;;;5036709;28;20472;-61
2022/02/09 13:14:35;;;;;;;2.90;2.70;;;10.70;99.90;;;;;;5036684;28;20460;-60
2022/02/09 13:26:00;;;;;;;2.77;2.57;;;10.90;99.90;;;;;;5034457;28;20813;-60
2022/02/09 14:03:02;;;;;;;2.50;2.30;;;10.80;99.90;;;;;;4965883;28;20536;-61
2022/02/09 14:11:27;;;;;;;3.00;2.80;;;10.70;99.90;;;;;;5035083;28;20460;-61
2022/02/09 14:14:53;;;;;;;3.43;3.10;;;10.70;99.90;;;;;;5035056;28;20448;-61
2022/02/09 14:47:50;;;;;;;3.00;2.80;;;10.60;99.90;;;;;;5034735;28;20504;-62
2022/02/09 14:53:12;;;;;;;2.53;2.30;;;10.60;99.90;;;;;;5033218;28;20441;-62
2022/02/09 14:55:51;;;;;;;2.87;2.27;;;10.60;99.90;;;;;;5041784;28;20441;-62
2022/02/09 14:58:24;;;;;;;3.10;2.80;;;10.60;99.90;;;;;;5034409;28;20837;-62
2022/02/09 15:00:59;;;;;;;3.10;2.80;;;10.60;99.90;;;;;;5033997;28;20426;-59
2022/02/09 15:03:47;;;;;;;4.57;2.87;;;10.60;99.90;;;;;;5034595;28;20515;-60
2022/02/09 15:09:05;;;;;;;2.90;2.70;;;10.60;99.90;;;;;;5034295;28;20505;-61
2022/02/09 15:11:40;;;;;;;3.73;2.50;;;10.60;99.90;;;;;;5034042;28;20489;-61
2022/02/09 15:14:16;;;;;;;2.50;2.27;;;10.60;99.90;;;;;;5035760;28;20455;-61
2022/02/09 15:16:54;;;;;;;2.87;2.57;;;10.60;99.90;;;;;;5034666;28;20460;-61
2022/02/09 15:19:30;;;;;;;3.10;2.90;;;10.60;99.90;;;;;;5034001;28;20480;-62
2022/02/09 15:24:39;;;;;;;3.30;3.00;;;10.50;99.90;;;;;;5033990;28;20394;-61
2022/02/09 15:27:14;;;;;;;2.93;2.73;;;10.50;99.90;;;;;;5033343;28;20451;-61
2022/02/09 15:29:41;;;;;;;4.57;2.90;;;10.40;99.90;;;;;;5034014;28;20787;-61
2022/02/09 15:32:18;;;;;;;3.90;2.67;;;10.40;99.90;;;;;;5033203;28;20472;-59
2022/02/09 15:34:50;;;;;;;3.37;2.73;;;10.30;99.90;;;;;;5033546;28;20447;-62
2022/02/09 15:37:23;;;;;;;3.40;3.10;;;10.30;99.90;;;;;;5033272;28;20909;-61
2022/02/09 15:39:53;;;;;;;5.00;3.20;;;10.30;99.90;;;;;;5033150;28;20587;-61
2022/02/09 15:56:30;;;;;;;4.73;3.60;;;10.20;99.90;;;;;;5033550;28;20417;-61
2022/02/09 16:23:58;;;;;;;4.50;3.87;;;10.10;99.90;;;;;;5086876;22;20558;-60
2022/02/09 16:37:51;;;;;;;4.30;3.90;;;10.00;99.90;;;;;;5091027;27;20572;-59
2022/02/09 16:46:03;;;;;;;4.70;4.30;;;10.00;99.90;;;;;;5070302;28;20399;-60
2022/02/09 16:48:32;;;;;;;5.80;4.43;;;9.90;99.90;;;;;;5070283;28;20904;-59
2022/02/09 16:51:01;;;;;;;6.20;5.40;;;9.90;99.90;;;;;;5070802;28;20454;-59
2022/02/09 16:53:46;;;;;;;5.90;5.30;;;9.90;99.90;;;;;;5070824;28;21037;-59
2022/02/09 16:56:27;;;;;;;5.03;4.63;;;9.90;99.90;;;;;;5070947;28;20208;-59
2022/02/09 17:15:42;;;;;;;6.68;6.07;;;9.80;99.90;;;;;;5069370;28;20248;-59
2022/02/09 17:20:54;;;;;;;7.60;6.57;;;9.80;99.90;;;;;;5069809;28;20284;-60
2022/02/09 17:23:21;;;;;;;8.63;7.22;;;9.80;99.90;;;;;;5069240;28;20197;-60
2022/02/09 17:25:50;;;;;;;7.38;6.78;;;9.80;99.90;;;;;;5069549;28;20201;-60
2022/02/09 17:28:17;;;;;;;7.50;6.82;;;9.80;99.90;;;;;;5069071;28;20659;-60
2022/02/09 17:33:41;;;;;;;8.73;7.83;;;9.70;99.90;;;;;;5069006;28;20783;-60
2022/02/09 17:36:14;;;;;;;8.30;7.60;;;9.60;99.90;;;;;;5069183;28;20884;-61
2022/02/09 17:38:48;;;;;;;8.13;7.43;;;9.60;99.90;;;;;;5068926;28;20637;-60
2022/02/09 17:57:48;;;;;;;7.82;7.05;;;9.60;99.90;;;;;;5055270;28;20214;-58
2022/02/09 18:00:16;;;;;;;9.68;7.80;;;9.60;99.90;;;;;;5055848;28;20190;-59
2022/02/09 18:02:46;;;;;;;8.52;7.72;;;9.60;99.90;;;;;;5055648;28;20213;-60
2022/02/09 18:05:19;;;;;;;8.77;8.00;;;9.60;99.90;;;;;;5055433;28;20224;-60
2022/02/09 18:07:50;;;;;;;7.65;6.90;;;9.60;99.90;;;;;;5055504;28;20240;-60
2022/02/09 18:10:25;;;;;;;8.85;7.05;;;9.60;99.90;;;;;;5055577;28;20277;-60
2022/02/09 18:29:30;;;;;;;7.15;6.55;;;9.60;99.90;;;;;;5055022;28;20269;-60
2022/02/09 18:32:14;;;;;;;6.25;5.65;;;9.60;99.90;;;;;;5055387;28;20196;-60
2022/02/09 18:37:43;;;;;;;6.85;6.25;;;9.60;99.90;;;;;;5054648;28;20308;-59
2022/02/09 18:43:16;;;;;;;9.15;6.00;;;9.60;99.90;;;;;;5055007;28;20184;-60
2022/02/09 18:45:49;;;;;;;7.13;5.95;;;9.50;99.90;;;;;;5055092;28;20202;-61
2022/02/09 18:48:49;;;;;;;8.80;5.90;;;9.50;99.90;;;;;;5055063;28;20182;-61
2022/02/09 18:59:51;;;;;;;6.32;5.72;;;9.50;99.90;;;;;;5053187;28;20248;-59
2022/02/09 19:02:41;;;;;;;7.53;6.72;;;9.50;99.90;;;;;;5054670;28;20282;-59
2022/02/09 19:05:20;;;;;;;8.48;7.53;;;9.50;99.90;;;;;;5054500;28;20239;-59
2022/02/09 19:08:14;;;;;;;7.93;7.22;;;9.50;99.90;;;;;;5054199;28;20190;-58
2022/02/09 19:27:34;;;;;;;8.93;7.22;;;9.50;99.90;;;;;;5054957;28;20199;-57
2022/02/09 19:30:06;;;;;;;8.68;7.78;;;9.50;99.90;;;;;;5054505;28;20558;-57
2022/02/09 19:44:46;;;;;;;11.25;10.05;;;9.50;99.90;;;;;;5056663;28;20367;-58
2022/02/09 19:47:00;;;;;;;10.60;8.98;;;9.50;99.90;;;;;;5057195;28;20226;-58
2022/02/09 19:50:04;;;;;;;10.70;9.60;;;9.50;99.90;;;;;;5057392;28;20278;-58
2022/02/09 19:52:46;;;;;;;9.80;8.60;;;9.40;99.90;;;;;;5056575;28;20517;-58
2022/02/09 19:57:57;;;;;;;11.05;8.57;;;9.50;99.90;;;;;;5052143;28;20241;-58
2022/02/09 20:00:27;;;;;;;10.80;9.70;;;9.50;99.90;;;;;;5054361;28;20723;-58
2022/02/09 20:02:54;;;;;;;10.18;9.18;;;9.50;99.90;;;;;;5054198;28;20212;-58
2022/02/09 20:05:22;;;;;;;16.25;10.40;;;9.50;99.90;;;;;;5054599;28;20222;-57
2022/02/09 20:07:51;;;;;;;15.13;10.40;;;9.50;99.90;;;;;;5053859;28;20200;-58
2022/02/09 20:10:18;;;;;;;13.40;11.27;;;9.50;99.90;;;;;;5053664;28;20720;-57
2022/02/09 20:12:46;;;;;;;11.68;10.45;;;9.50;99.90;;;;;;5054455;28;20440;-57
2022/02/09 20:15:17;;;;;;;11.00;9.55;;;9.50;99.90;;;;;;5053344;28;20233;-57
2022/02/09 20:17:44;;;;;;;12.90;11.57;;;9.50;99.90;;;;;;5053443;28;20205;-59
2022/02/09 20:20:20;;;;;;;12.80;11.50;;;9.50;99.90;;;;;;5053334;28;20197;-58
2022/02/09 20:22:48;;;;;;;12.18;10.88;;;9.50;99.90;;;;;;5053401;28;20212;-58
2022/02/09 20:25:19;;;;;;;14.35;11.68;;;9.50;99.90;;;;;;5053166;28;20243;-58
2022/02/09 20:27:47;;;;;;;14.00;11.63;;;9.50;99.90;;;;;;5053559;28;20188;-58
2022/02/09 20:30:18;;;;;;;17.88;12.90;;;9.50;99.90;;;;;;5053446;28;20213;-58
2022/02/09 20:32:49;;;;;;;12.20;10.77;;;9.50;99.90;;;;;;5054110;28;20182;-58
2022/02/09 20:35:18;;;;;;;17.10;11.68;;;9.50;99.90;;;;;;5054178;28;20253;-58
2022/02/09 20:37:48;;;;;;;16.30;12.77;;;9.50;99.90;;;;;;5053985;28;20221;-58
2022/02/09 20:40:22;;;;;;;16.45;13.05;;;9.50;99.90;;;;;;5053450;28;20228;-58
2022/02/09 20:42:56;;;;;;;13.65;12.07;;;9.40;99.90;;;;;;5053301;28;20181;-58
2022/02/09 20:45:32;;;;;;;14.90;12.70;;;9.40;99.90;;;;;;5053289;28;20312;-58
2022/02/09 20:48:03;;;;;;;14.15;11.20;;;9.40;99.90;;;;;;5053721;28;20255;-58
2022/02/09 20:50:32;;;;;;;14.27;12.18;;;9.40;99.90;;;;;;5053175;28;20261;-58
2022/02/09 20:52:59;;;;;;;14.23;12.10;;;9.40;99.90;;;;;;5053223;28;20209;-58
2022/02/09 20:55:30;;;;;;;13.90;11.60;;;9.40;99.90;;;;;;5053471;28;20229;-58
2022/02/09 20:57:57;;;;;;;13.98;11.52;;;9.40;99.90;;;;;;5053121;28;20216;-58
2022/02/09 21:00:34;;;;;;;15.82;11.35;;;9.40;99.90;;;;;;5053092;28;20197;-58
2022/02/09 21:03:13;;;;;;;14.07;11.95;;;9.40;99.90;;;;;;5053175;28;20235;-58
2022/02/09 21:05:48;;;;;;;13.77;12.23;;;9.40;99.90;;;;;;5053291;28;20236;-58
2022/02/09 21:08:29;;;;;;;13.50;11.70;;;9.40;99.90;;;;;;5053096;28;20186;-58
2022/02/09 21:11:07;;;;;;;13.63;12.13;;;9.40;99.90;;;;;;5052876;28;20233;-58
2022/02/09 21:13:44;;;;;;;14.25;11.57;;;9.40;99.90;;;;;;5052982;28;20229;-57
2022/02/09 21:16:20;;;;;;;15.00;12.25;;;9.40;99.90;;;;;;5053157;28;20536;-60
2022/02/09 21:19:12;;;;;;;15.88;13.45;;;9.40;99.90;;;;;;5052963;28;20614;-59
2022/02/09 21:33:14;;;;;;;15.02;13.07;;;9.40;99.90;;;;;;5056209;28;20553;-59
2022/02/09 21:58:00;;;;;;;13.57;11.20;;;9.40;99.90;;;;;;5055664;28;20266;-57
2022/02/09 22:00:45;;;;;;;13.48;11.88;;;9.40;99.90;;;;;;5056200;28;20600;-57
2022/02/09 22:20:16;;;;;;;15.75;12.85;;;9.40;99.90;;;;;;5055638;28;20185;-58
2022/02/09 22:22:52;;;;;;;15.15;13.23;;;9.40;99.90;;;;;;5055159;28;20190;-58
2022/02/09 22:28:08;;;;;;;17.03;14.73;;;9.40;99.90;;;;;;5036418;28;20204;-63
2022/02/09 22:31:19;;;;;;;15.67;13.60;;;9.40;99.90;;;;;;5035754;28;20757;-63
2022/02/09 22:47:59;;;;;;;17.40;14.43;;;9.40;99.90;;;;;;5013712;28;20201;-63
2022/02/09 22:55:58;;;;;;;17.80;14.52;;;9.30;99.90;;;;;;5027255;28;20285;-63
2022/02/09 22:58:25;;;;;;;19.80;15.00;;;9.30;99.90;;;;;;5037171;28;20218;-63
2022/02/09 23:01:00;;;;;;;19.98;15.32;;;9.30;99.90;;;;;;5035113;28;20199;-63
2022/02/09 23:03:36;;;;;;;20.83;15.65;;;9.30;99.90;;;;;;5035345;28;20190;-63
2022/02/09 23:14:32;;;;;;;20.05;14.75;;;9.30;99.90;;;;;;5037241;28;20225;-64
